createdAt,value
2019-05-29T00:00:36.951Z,10.84
2019-05-29T00:01:36.920Z,10.86
2019-05-29T00:02:36.902Z,10.88
2019-05-29T00:03:36.920Z,10.91
2019-05-29T00:04:36.865Z,10.92
2019-05-29T00:05:36.847Z,10.84
2019-05-29T00:06:36.834Z,10.89
2019-05-29T00:07:36.809Z,10.74
2019-05-29T00:08:36.788Z,10.84
2019-05-29T00:09:36.794Z,10.79
2019-05-29T00:10:36.752Z,10.78
2019-05-29T00:11:36.737Z,10.70
2019-05-29T00:12:36.746Z,10.67
2019-05-29T00:13:36.720Z,10.70
2019-05-29T00:14:36.682Z,10.70
2019-05-29T00:15:36.660Z,10.67
2019-05-29T00:16:36.660Z,10.68
2019-05-29T00:17:36.652Z,10.76
2019-05-29T00:18:36.615Z,10.78
2019-05-29T00:19:36.585Z,10.79
2019-05-29T00:20:36.568Z,10.79
2019-05-29T00:21:36.555Z,10.82
2019-05-29T00:22:36.530Z,10.79
2019-05-29T00:23:36.535Z,10.86
2019-05-29T00:24:36.492Z,10.91
2019-05-29T00:25:36.488Z,10.82
2019-05-29T00:26:36.456Z,10.84
2019-05-29T00:27:36.440Z,10.79
2019-05-29T00:28:36.440Z,10.74
2019-05-29T00:29:36.399Z,10.82
2019-05-29T00:30:36.409Z,10.82
2019-05-29T00:31:36.372Z,10.81
2019-05-29T00:32:36.870Z,10.81
2019-05-29T00:33:36.355Z,10.76
2019-05-29T00:34:36.335Z,10.86
2019-05-29T00:35:36.291Z,10.85
2019-05-29T00:36:36.286Z,10.79
2019-05-29T00:37:36.253Z,10.79
2019-05-29T00:38:36.259Z,10.86
2019-05-29T00:39:36.214Z,10.82
2019-05-29T00:40:36.195Z,10.79
2019-05-29T00:41:36.176Z,10.86
2019-05-29T00:42:36.162Z,10.84
2019-05-29T00:43:36.176Z,10.88
2019-05-29T00:44:36.125Z,10.84
2019-05-29T00:45:36.105Z,10.88
2019-05-29T00:46:36.107Z,10.78
2019-05-29T00:47:36.067Z,10.86
2019-05-29T00:48:36.047Z,10.74
2019-05-29T00:49:36.043Z,10.78
2019-05-29T00:50:36.010Z,10.79
2019-05-29T00:51:35.991Z,10.84
2019-05-29T00:52:36.008Z,10.76
2019-05-29T00:53:35.955Z,10.76
2019-05-29T00:54:35.962Z,10.79
2019-05-29T00:55:35.918Z,10.73
2019-05-29T00:56:35.922Z,10.82
2019-05-29T00:57:35.879Z,10.79
2019-05-29T00:58:35.880Z,10.79
2019-05-29T00:59:35.843Z,10.82
2019-05-29T01:00:35.831Z,10.81
2019-05-29T01:01:35.805Z,10.81
2019-05-29T01:02:35.809Z,10.84
2019-05-29T01:03:35.769Z,10.66
2019-05-29T01:04:35.765Z,10.64
2019-05-29T01:05:35.757Z,10.76
2019-05-29T01:06:35.740Z,10.70
2019-05-29T01:07:35.697Z,10.70
2019-05-29T01:08:35.679Z,10.74
2019-05-29T01:09:35.683Z,10.73
2019-05-29T01:10:35.660Z,10.73
2019-05-29T01:11:35.641Z,10.67
2019-05-29T01:12:35.618Z,10.71
2019-05-29T01:13:35.587Z,10.73
2019-05-29T01:14:49.255Z,10.64
2019-05-29T01:15:35.564Z,10.67
2019-05-29T01:16:35.547Z,10.63
2019-05-29T01:17:35.506Z,10.59
2019-05-29T01:18:35.494Z,10.52
2019-05-29T01:19:35.474Z,10.45
2019-05-29T01:20:35.457Z,10.45
2019-05-29T01:21:35.464Z,10.52
2019-05-29T01:22:35.413Z,10.47
2019-05-29T01:23:35.395Z,10.33
2019-05-29T01:24:35.380Z,10.27
2019-05-29T01:28:58.409Z,10.07
2019-05-29T01:29:49.964Z,10.02
2019-05-29T01:30:51.606Z,10.04
2019-05-29T01:31:49.927Z,10.02
2019-05-29T01:32:49.907Z,9.99
2019-05-29T01:33:49.915Z,9.93
2019-05-29T01:34:49.874Z,10.01
2019-05-29T01:35:49.867Z,10.02
2019-05-29T01:36:49.833Z,9.97
2019-05-29T01:37:49.812Z,9.93
2019-05-29T01:38:49.803Z,9.91
2019-05-29T01:39:49.807Z,9.86
2019-05-29T01:40:49.769Z,9.89
2019-05-29T01:41:49.730Z,9.81
2019-05-29T01:42:50.160Z,9.83
2019-05-29T01:43:49.696Z,9.78
2019-05-29T01:45:03.837Z,9.74
2019-05-29T01:45:49.660Z,9.75
2019-05-29T01:46:49.658Z,9.69
2019-05-29T01:47:49.623Z,9.61
2019-05-29T01:48:49.630Z,9.66
2019-05-29T01:49:49.582Z,9.60
2019-05-29T01:50:49.565Z,9.66
2019-05-29T01:51:49.543Z,9.56
2019-05-29T01:52:49.541Z,9.56
2019-05-29T01:53:49.506Z,9.50
2019-05-29T01:54:49.490Z,9.56
2019-05-29T01:55:49.468Z,9.54
2019-05-29T01:56:49.471Z,9.54
2019-05-29T01:57:49.449Z,9.47
2019-05-29T01:58:49.410Z,9.36
2019-05-29T01:59:49.397Z,9.42
2019-05-29T02:00:49.381Z,9.46
2019-05-29T02:01:49.357Z,9.35
2019-05-29T02:02:49.345Z,9.39
2019-05-29T02:03:49.346Z,9.35
2019-05-29T02:04:49.301Z,9.24
2019-05-29T02:05:49.278Z,9.32
2019-05-29T02:06:49.267Z,9.26
2019-05-29T02:07:49.249Z,9.26
2019-05-29T02:08:49.226Z,9.18
2019-05-29T02:09:49.224Z,9.14
2019-05-29T02:10:49.206Z,9.11
2019-05-29T02:11:49.211Z,9.15
2019-05-29T02:12:49.154Z,9.05
2019-05-29T02:13:49.145Z,8.99
2019-05-29T02:14:49.106Z,8.95
2019-05-29T02:15:49.105Z,8.92
2019-05-29T02:16:49.085Z,8.86
2019-05-29T02:17:49.058Z,8.84
2019-05-29T02:18:49.043Z,8.89
2019-05-29T02:19:49.017Z,8.80
2019-05-29T02:20:49.014Z,8.83
2019-05-29T02:21:48.980Z,8.87
2019-05-29T02:22:48.960Z,8.80
2019-05-29T02:23:48.937Z,8.77
2019-05-29T02:24:48.916Z,8.80
2019-05-29T02:25:48.916Z,8.71
2019-05-29T02:26:48.883Z,8.74
2019-05-29T02:27:48.889Z,8.70
2019-05-29T02:28:48.845Z,8.59
2019-05-29T02:29:48.822Z,8.70
2019-05-29T02:30:48.832Z,8.56
2019-05-29T02:31:48.789Z,8.56
2019-05-29T02:32:48.779Z,8.58
2019-05-29T02:33:48.757Z,8.53
2019-05-29T02:34:48.730Z,8.55
2019-05-29T02:35:48.730Z,8.48
2019-05-29T02:36:48.689Z,8.47
2019-05-29T02:37:48.671Z,8.53
2019-05-29T02:38:48.657Z,8.48
2019-05-29T02:39:48.636Z,8.47
2019-05-29T02:40:48.627Z,8.43
2019-05-29T02:41:48.599Z,8.43
2019-05-29T02:42:48.578Z,8.44
2019-05-29T02:43:48.554Z,8.48
2019-05-29T02:44:48.539Z,8.47
2019-05-29T02:45:54.342Z,8.50
2019-05-29T02:46:48.518Z,8.52
2019-05-29T02:47:48.489Z,8.56
2019-05-29T02:48:48.470Z,8.56
2019-05-29T02:49:48.454Z,8.50
2019-05-29T02:50:48.420Z,8.47
2019-05-29T02:51:48.400Z,8.44
2019-05-29T02:52:48.388Z,8.50
2019-05-29T02:53:48.361Z,8.47
2019-05-29T02:54:48.357Z,8.50
2019-05-29T02:55:48.325Z,8.52
2019-05-29T02:56:48.309Z,8.45
2019-05-29T02:57:48.293Z,8.44
2019-05-29T02:58:48.296Z,8.37
2019-05-29T02:59:48.266Z,8.37
2019-05-29T03:00:48.230Z,8.33
2019-05-29T03:01:48.226Z,8.34
2019-05-29T03:02:48.188Z,8.19
2019-05-29T03:03:48.173Z,8.36
2019-05-29T03:04:48.169Z,8.33
2019-05-29T03:05:48.184Z,8.28
2019-05-29T03:06:48.108Z,8.19
2019-05-29T03:07:48.147Z,8.28
2019-05-29T03:08:48.086Z,8.22
2019-05-29T03:09:48.124Z,8.26
2019-05-29T03:10:48.043Z,8.22
2019-05-29T03:11:48.018Z,8.22
2019-05-29T03:12:48.003Z,8.23
2019-05-29T03:13:47.975Z,8.20
2019-05-29T03:14:47.959Z,8.23
2019-05-29T03:15:47.956Z,8.19
2019-05-29T03:16:47.931Z,8.23
2019-05-29T03:17:47.971Z,8.26
2019-05-29T03:18:47.876Z,8.22
2019-05-29T03:19:47.862Z,8.20
2019-05-29T03:20:47.839Z,8.25
2019-05-29T03:21:47.836Z,8.19
2019-05-29T03:22:47.799Z,8.15
2019-05-29T03:23:47.939Z,8.20
2019-05-29T03:24:47.763Z,8.15
2019-05-29T03:25:47.741Z,8.11
2019-05-29T03:26:47.723Z,8.15
2019-05-29T03:27:47.700Z,8.16
2019-05-29T03:28:47.684Z,8.10
2019-05-29T03:29:47.684Z,8.07
2019-05-29T03:30:47.675Z,8.05
2019-05-29T03:31:48.694Z,8.08
2019-05-29T03:32:48.891Z,8.15
2019-05-29T03:33:50.368Z,8.18
2019-05-29T03:34:48.244Z,8.12
2019-05-29T03:35:48.630Z,8.22
2019-05-29T03:36:48.878Z,8.22
2019-05-29T03:37:47.508Z,8.25
2019-05-29T03:38:47.489Z,8.16
2019-05-29T03:39:47.473Z,8.18
2019-05-29T03:40:47.443Z,8.15
2019-05-29T03:41:47.448Z,8.19
2019-05-29T03:42:47.414Z,8.23
2019-05-29T03:43:47.390Z,8.19
2019-05-29T03:44:47.366Z,8.22
2019-05-29T03:45:47.351Z,8.22
2019-05-29T03:46:47.351Z,8.38
2019-05-29T03:47:47.324Z,8.34
2019-05-29T03:48:47.294Z,8.34
2019-05-29T03:49:47.288Z,8.37
2019-05-29T03:50:47.252Z,8.43
2019-05-29T03:51:47.268Z,8.48
2019-05-29T03:52:47.228Z,8.45
2019-05-29T03:53:47.200Z,8.43
2019-05-29T03:54:47.173Z,8.44
2019-05-29T03:55:47.163Z,8.52
2019-05-29T03:56:47.137Z,8.44
2019-05-29T03:57:47.142Z,8.55
2019-05-29T03:58:47.096Z,8.55
2019-05-29T03:59:47.099Z,8.52
2019-05-29T04:00:48.566Z,8.53
2019-05-29T04:01:47.038Z,8.58
2019-05-29T04:02:47.017Z,8.59
2019-05-29T04:03:47.000Z,8.53
2019-05-29T04:04:47.017Z,8.58
2019-05-29T04:05:46.955Z,8.55
2019-05-29T04:06:47.516Z,8.58
2019-05-29T04:07:46.922Z,8.56
2019-05-29T04:08:46.908Z,8.56
2019-05-29T04:09:46.882Z,8.53
2019-05-29T04:10:46.892Z,8.56
2019-05-29T04:11:46.851Z,8.56
2019-05-29T04:12:46.825Z,8.52
2019-05-29T04:13:46.814Z,8.56
2019-05-29T04:14:46.794Z,8.56
2019-05-29T04:15:46.780Z,8.56
2019-05-29T04:16:59.347Z,8.55
2019-05-29T04:17:46.731Z,8.58
2019-05-29T04:18:46.714Z,8.71
2019-05-29T04:19:46.711Z,8.79
2019-05-29T04:20:46.672Z,8.86
2019-05-29T04:21:46.655Z,8.87
2019-05-29T04:22:46.630Z,8.94
2019-05-29T04:23:46.623Z,8.99
2019-05-29T04:24:46.600Z,9.05
2019-05-29T04:25:46.590Z,9.10
2019-05-29T04:26:46.551Z,9.33
2019-05-29T04:27:46.537Z,9.35
2019-05-29T04:28:46.521Z,9.36
2019-05-29T04:29:46.507Z,9.40
2019-05-29T04:30:46.475Z,9.48
2019-05-29T04:31:46.480Z,9.66
2019-05-29T04:32:46.441Z,9.71
2019-05-29T04:33:46.414Z,9.99
2019-05-29T04:34:46.406Z,10.38
2019-05-29T04:35:46.379Z,10.67
2019-05-29T04:36:46.362Z,10.88
2019-05-29T04:37:46.358Z,11.18
2019-05-29T04:38:46.346Z,11.47
2019-05-29T04:39:46.308Z,11.65
2019-05-29T04:40:46.299Z,11.80
2019-05-29T04:41:46.266Z,11.99
2019-05-29T04:42:46.286Z,12.28
2019-05-29T04:43:46.227Z,12.45
2019-05-29T04:44:46.218Z,12.54
2019-05-29T04:45:46.194Z,12.77
2019-05-29T04:46:46.190Z,12.86
2019-05-29T04:47:46.151Z,12.86
2019-05-29T04:48:46.155Z,12.92
2019-05-29T04:49:46.127Z,12.83
2019-05-29T04:50:46.097Z,12.83
2019-05-29T04:51:46.100Z,12.85
2019-05-29T04:52:46.088Z,12.86
2019-05-29T04:53:46.042Z,12.85
2019-05-29T04:54:46.029Z,12.79
2019-05-29T04:55:46.017Z,12.79
2019-05-29T04:56:45.989Z,12.62
2019-05-29T04:57:46.004Z,12.56
2019-05-29T04:58:45.956Z,12.56
2019-05-29T04:59:45.936Z,12.45
2019-05-29T05:00:58.540Z,12.37
2019-05-29T05:01:45.899Z,12.28
2019-05-29T05:02:45.889Z,12.12
2019-05-29T05:03:45.895Z,12.02
2019-05-29T05:04:45.870Z,12.02
2019-05-29T05:05:45.826Z,11.98
2019-05-29T05:06:45.813Z,11.96
2019-05-29T05:07:45.806Z,11.99
2019-05-29T05:08:45.802Z,11.90
2019-05-29T05:09:45.761Z,11.98
2019-05-29T05:10:45.745Z,11.94
2019-05-29T05:11:45.732Z,11.99
2019-05-29T05:12:45.755Z,11.96
2019-05-29T05:13:45.705Z,12.05
2019-05-29T05:14:45.706Z,12.05
2019-05-29T05:15:45.650Z,12.01
2019-05-29T05:16:45.641Z,12.14
2019-05-29T05:17:45.626Z,12.14
2019-05-29T05:18:45.610Z,12.13
2019-05-29T05:19:45.586Z,12.23
2019-05-29T05:20:45.583Z,12.29
2019-05-29T05:21:45.548Z,12.28
2019-05-29T05:22:45.529Z,12.34
2019-05-29T05:23:45.514Z,12.45
2019-05-29T05:24:45.490Z,12.46
2019-05-29T05:25:45.477Z,12.60
2019-05-29T05:26:45.473Z,12.70
2019-05-29T05:27:45.444Z,12.83
2019-05-29T05:28:46.438Z,12.89
2019-05-29T05:29:45.435Z,12.93
2019-05-29T05:30:45.387Z,13.01
2019-05-29T05:31:45.405Z,12.87
2019-05-29T05:32:45.363Z,12.92
2019-05-29T05:33:45.340Z,13.01
2019-05-29T05:34:45.318Z,12.92
2019-05-29T05:35:45.298Z,13.01
2019-05-29T05:36:45.283Z,12.93
2019-05-29T05:37:45.285Z,13.03
2019-05-29T05:38:45.244Z,12.93
2019-05-29T05:39:45.228Z,13.07
2019-05-29T05:40:45.220Z,13.15
2019-05-29T05:41:45.539Z,13.10
2019-05-29T05:42:45.176Z,13.11
2019-05-29T05:43:45.179Z,13.11
2019-05-29T05:44:45.141Z,13.08
2019-05-29T05:45:45.123Z,13.10
2019-05-29T05:46:45.107Z,13.08
2019-05-29T05:47:56.884Z,13.08
2019-05-29T05:48:45.099Z,13.15
2019-05-29T05:49:45.079Z,13.17
2019-05-29T05:50:45.041Z,13.25
2019-05-29T05:51:45.027Z,13.11
2019-05-29T05:52:45.000Z,13.22
2019-05-29T05:53:44.984Z,13.15
2019-05-29T05:54:44.986Z,13.15
2019-05-29T05:55:44.949Z,13.15
2019-05-29T05:56:44.937Z,13.23
2019-05-29T05:57:44.915Z,13.28
2019-05-29T05:58:44.897Z,13.25
2019-05-29T05:59:44.877Z,13.10
2019-05-29T06:00:44.882Z,13.28
2019-05-29T06:01:44.860Z,13.30
2019-05-29T06:02:44.825Z,13.32
2019-05-29T06:03:44.808Z,13.42
2019-05-29T06:04:44.821Z,13.44
2019-05-29T06:05:44.775Z,13.48
2019-05-29T06:06:44.750Z,13.49
2019-05-29T06:07:44.737Z,13.49
2019-05-29T06:08:44.727Z,13.57
2019-05-29T06:09:44.712Z,13.60
2019-05-29T06:10:44.700Z,13.57
2019-05-29T06:11:44.664Z,13.67
2019-05-29T06:12:44.651Z,13.75
2019-05-29T06:13:44.646Z,13.73
2019-05-29T06:14:44.614Z,13.71
2019-05-29T06:15:44.594Z,13.70
2019-05-29T06:16:44.581Z,13.67
2019-05-29T06:18:04.774Z,13.71
2019-05-29T06:18:44.547Z,13.62
2019-05-29T06:19:44.524Z,13.78
2019-05-29T06:20:44.581Z,13.78
2019-05-29T06:21:44.503Z,13.77
2019-05-29T06:22:44.472Z,13.70
2019-05-29T06:23:44.482Z,13.89
2019-05-29T06:24:44.447Z,13.96
2019-05-29T06:25:44.471Z,14.12
2019-05-29T06:26:44.405Z,14.17
2019-05-29T06:27:44.389Z,14.21
2019-05-29T06:28:44.379Z,14.21
2019-05-29T06:29:44.379Z,14.28
2019-05-29T06:30:45.083Z,14.29
2019-05-29T06:31:44.335Z,14.28
2019-05-29T06:32:44.303Z,14.27
2019-05-29T06:33:44.285Z,14.17
2019-05-29T06:34:44.291Z,14.33
2019-05-29T06:35:44.256Z,14.32
2019-05-29T06:36:47.874Z,14.29
2019-05-29T06:37:44.215Z,14.33
2019-05-29T06:38:44.565Z,14.40
2019-05-29T06:39:44.183Z,14.43
2019-05-29T06:40:44.182Z,14.39
2019-05-29T06:41:44.400Z,14.36
2019-05-29T06:42:44.133Z,14.36
2019-05-29T06:43:44.492Z,14.43
2019-05-29T06:44:47.377Z,14.54
2019-05-29T06:45:44.173Z,14.60
2019-05-29T06:46:45.322Z,14.50
2019-05-29T06:47:44.622Z,14.52
2019-05-29T06:48:56.297Z,14.47
2019-05-29T06:49:44.396Z,14.54
2019-05-29T06:50:43.996Z,14.51
2019-05-29T06:51:43.996Z,14.68
2019-05-29T06:52:43.960Z,14.54
2019-05-29T06:53:44.195Z,14.62
2019-05-29T06:54:44.173Z,14.64
2019-05-29T06:55:44.074Z,14.70
2019-05-29T06:56:43.905Z,14.77
2019-05-29T06:57:44.438Z,14.84
2019-05-29T06:58:44.320Z,14.89
2019-05-29T06:59:44.705Z,14.95
2019-05-29T07:00:44.876Z,14.94
2019-05-29T07:01:43.817Z,14.92
2019-05-29T07:02:44.876Z,15.02
2019-05-29T07:03:44.104Z,14.96
2019-05-29T07:04:44.626Z,14.96
2019-05-29T07:05:46.721Z,15.02
2019-05-29T07:06:44.802Z,15.03
2019-05-29T07:07:44.492Z,15.01
2019-05-29T07:08:47.843Z,15.02
2019-05-29T07:09:43.666Z,15.09
2019-05-29T07:10:44.599Z,15.06
2019-05-29T07:11:43.640Z,15.09
2019-05-29T07:12:44.493Z,15.03
2019-05-29T07:13:47.079Z,15.02
2019-05-29T07:14:44.546Z,15.02
2019-05-29T07:15:45.671Z,15.13
2019-05-29T07:16:53.195Z,15.13
2019-05-29T07:17:44.476Z,15.16
2019-05-29T07:19:22.417Z,15.09
2019-05-29T07:19:55.138Z,15.09
2019-05-29T07:20:43.494Z,15.14
2019-05-29T07:21:44.924Z,15.19
2019-05-29T07:22:43.460Z,15.19
2019-05-29T07:23:45.132Z,15.23
2019-05-29T07:24:43.550Z,15.11
2019-05-29T07:25:43.414Z,15.19
2019-05-29T07:26:43.857Z,15.25
2019-05-29T07:27:43.376Z,15.28
2019-05-29T07:29:03.069Z,15.32
2019-05-29T07:29:43.570Z,15.36
2019-05-29T07:30:49.721Z,15.44
2019-05-29T07:31:43.303Z,15.47
2019-05-29T07:32:49.535Z,15.51
2019-05-29T07:33:43.328Z,15.56
2019-05-29T07:34:58.128Z,15.56
2019-05-29T07:35:43.612Z,15.64
2019-05-29T07:36:44.036Z,15.59
2019-05-29T07:37:43.814Z,15.60
2019-05-29T07:38:46.116Z,15.60
2019-05-29T07:39:43.594Z,15.68
2019-05-29T07:40:45.121Z,15.68
2019-05-29T07:41:43.659Z,15.68
2019-05-29T07:42:49.848Z,15.59
2019-05-29T07:43:43.854Z,15.50
2019-05-29T07:44:44.051Z,15.36
2019-05-29T07:45:44.080Z,15.32
2019-05-29T07:46:45.111Z,15.11
2019-05-29T07:47:44.601Z,15.23
2019-05-29T07:48:45.670Z,15.16
2019-05-29T07:49:45.303Z,15.29
2019-05-29T07:50:44.109Z,15.46
2019-05-29T07:51:43.701Z,15.35
2019-05-29T07:52:44.129Z,15.32
2019-05-29T07:53:42.933Z,15.31
2019-05-29T07:54:43.778Z,15.36
2019-05-29T07:55:42.905Z,15.35
2019-05-29T07:56:42.878Z,15.35
2019-05-29T07:57:42.928Z,15.32
2019-05-29T07:58:48.976Z,15.10
2019-05-29T07:59:42.850Z,15.07
2019-05-29T08:01:06.927Z,15.14
2019-05-29T08:01:42.951Z,15.09
2019-05-29T08:02:43.334Z,15.20
2019-05-29T08:03:43.519Z,15.35
2019-05-29T08:04:43.092Z,15.47
2019-05-29T08:05:46.219Z,15.59
2019-05-29T08:06:49.754Z,15.62
2019-05-29T08:07:43.426Z,15.75
2019-05-29T08:08:43.210Z,15.67
2019-05-29T08:09:43.618Z,15.67
2019-05-29T08:10:43.429Z,15.86
2019-05-29T08:11:43.558Z,15.87
2019-05-29T08:12:48.512Z,15.89
2019-05-29T08:13:43.623Z,15.89
2019-05-29T08:14:43.718Z,15.90
2019-05-29T08:15:54.091Z,15.87
2019-05-29T08:16:43.934Z,15.74
2019-05-29T08:17:43.939Z,15.47
2019-05-29T08:18:46.129Z,15.34
2019-05-29T08:20:00.583Z,15.36
2019-05-29T08:20:42.483Z,15.27
2019-05-29T08:21:42.725Z,15.21
2019-05-29T08:22:42.505Z,15.46
2019-05-29T08:23:42.434Z,15.53
2019-05-29T08:24:42.658Z,15.62
2019-05-29T08:25:43.451Z,15.80
2019-05-29T08:26:42.916Z,15.86
2019-05-29T08:27:42.694Z,15.93
2019-05-29T08:28:42.783Z,16.08
2019-05-29T08:29:42.585Z,16.24
2019-05-29T08:30:47.375Z,16.35
2019-05-29T08:31:42.754Z,16.43
2019-05-29T08:32:43.652Z,16.52
2019-05-29T08:33:42.838Z,16.49
2019-05-29T08:34:43.041Z,16.35
2019-05-29T08:35:43.074Z,16.38
2019-05-29T08:37:00.813Z,16.35
2019-05-29T08:37:42.847Z,16.41
2019-05-29T08:38:44.160Z,16.46
2019-05-29T08:39:43.227Z,16.39
2019-05-29T08:40:43.009Z,16.49
2019-05-29T08:41:47.760Z,16.71
2019-05-29T08:42:43.110Z,16.73
2019-05-29T08:43:42.506Z,16.76
2019-05-29T08:44:43.278Z,17.01
2019-05-29T08:45:43.379Z,16.94
2019-05-29T08:47:00.663Z,17.07
2019-05-29T08:47:42.036Z,16.93
2019-05-29T08:48:42.044Z,16.75
2019-05-29T08:49:42.004Z,16.89
2019-05-29T08:50:42.026Z,16.93
2019-05-29T08:51:41.977Z,16.89
2019-05-29T08:52:41.961Z,17.14
2019-05-29T08:53:42.541Z,17.14
2019-05-29T08:54:42.083Z,17.21
2019-05-29T08:55:42.078Z,17.26
2019-05-29T08:56:42.274Z,17.37
2019-05-29T08:57:42.563Z,17.56
2019-05-29T08:58:42.888Z,17.68
2019-05-29T08:59:42.140Z,17.70
2019-05-29T09:00:46.579Z,17.86
2019-05-29T09:01:42.806Z,17.95
2019-05-29T09:02:42.561Z,18.11
2019-05-29T09:03:42.779Z,18.18
2019-05-29T09:04:43.028Z,18.26
2019-05-29T09:05:42.454Z,18.27
2019-05-29T09:06:42.999Z,18.54
2019-05-29T09:07:43.359Z,18.60
2019-05-29T09:08:43.396Z,18.92
2019-05-29T09:09:42.900Z,19.21
2019-05-29T09:10:43.135Z,18.80
2019-05-29T09:11:42.954Z,18.67
2019-05-29T09:12:45.620Z,18.30
2019-05-29T09:13:41.625Z,17.97
2019-05-29T09:14:41.607Z,18.03
2019-05-29T09:15:41.601Z,18.17
2019-05-29T09:16:41.590Z,18.36
2019-05-29T09:17:41.571Z,18.65
2019-05-29T09:18:41.581Z,19.19
2019-05-29T09:19:41.536Z,19.40
2019-05-29T09:21:00.823Z,19.40
2019-05-29T09:21:41.513Z,19.40
2019-05-29T09:22:41.493Z,19.51
2019-05-29T09:23:41.486Z,19.63
2019-05-29T09:24:41.487Z,19.29
2019-05-29T09:25:41.454Z,18.65
2019-05-29T09:26:41.442Z,18.20
2019-05-29T09:27:41.431Z,17.59
2019-05-29T09:28:41.416Z,17.15
2019-05-29T09:29:41.411Z,17.41
2019-05-29T09:30:41.410Z,17.75
2019-05-29T09:31:41.397Z,18.20
2019-05-29T09:32:50.056Z,18.63
2019-05-29T09:33:41.356Z,18.98
2019-05-29T09:34:41.346Z,19.36
2019-05-29T09:35:41.335Z,19.68
2019-05-29T09:36:41.344Z,19.78
2019-05-29T09:37:41.336Z,19.81
2019-05-29T09:38:41.347Z,19.98
2019-05-29T09:39:41.295Z,19.92
2019-05-29T09:40:41.279Z,19.98
2019-05-29T09:41:41.293Z,20.03
2019-05-29T09:42:41.256Z,19.95
2019-05-29T09:43:57.618Z,19.73
2019-05-29T09:44:41.243Z,19.80
2019-05-29T09:45:41.236Z,19.83
2019-05-29T09:46:41.217Z,20.03
2019-05-29T09:47:41.225Z,20.26
2019-05-29T09:48:49.635Z,20.38
2019-05-29T09:49:41.209Z,20.57
2019-05-29T09:50:50.037Z,20.72
2019-05-29T09:51:41.167Z,20.85
2019-05-29T09:52:41.169Z,21.06
2019-05-29T09:53:41.165Z,20.95
2019-05-29T09:54:41.146Z,21.04
2019-05-29T09:55:41.163Z,21.12
2019-05-29T09:56:41.125Z,21.14
2019-05-29T09:57:41.112Z,21.24
2019-05-29T09:58:41.104Z,21.21
2019-05-29T09:59:41.096Z,21.19
2019-05-29T10:00:41.105Z,21.28
2019-05-29T10:01:41.171Z,21.31
2019-05-29T10:02:41.115Z,21.21
2019-05-29T10:03:41.053Z,21.25
2019-05-29T10:04:41.048Z,21.35
2019-05-29T10:05:41.037Z,21.35
2019-05-29T10:06:41.058Z,21.43
2019-05-29T10:07:41.028Z,21.58
2019-05-29T10:08:41.013Z,21.64
2019-05-29T10:09:41.008Z,21.68
2019-05-29T10:10:41.026Z,21.64
2019-05-29T10:11:40.984Z,21.75
2019-05-29T10:12:40.992Z,21.84
2019-05-29T10:13:40.962Z,21.86
2019-05-29T10:14:40.957Z,22.00
2019-05-29T10:15:40.947Z,22.05
2019-05-29T10:16:40.944Z,22.15
2019-05-29T10:17:40.919Z,22.22
2019-05-29T10:18:40.951Z,22.30
2019-05-29T10:19:40.917Z,22.24
2019-05-29T10:20:40.896Z,22.28
2019-05-29T10:21:41.457Z,22.31
2019-05-29T10:22:40.877Z,22.05
2019-05-29T10:23:40.869Z,21.34
2019-05-29T10:24:40.870Z,21.01
2019-05-29T10:25:40.846Z,20.67
2019-05-29T10:26:40.850Z,19.94
2019-05-29T10:27:40.842Z,19.94
2019-05-29T10:28:57.497Z,20.08
2019-05-29T10:29:40.812Z,20.41
2019-05-29T10:30:42.263Z,20.59
2019-05-29T10:31:42.103Z,20.92
2019-05-29T10:32:42.418Z,21.14
2019-05-29T10:33:42.248Z,21.32
2019-05-29T10:34:42.156Z,21.54
2019-05-29T10:35:40.743Z,21.91
2019-05-29T10:36:40.739Z,22.06
2019-05-29T10:37:40.730Z,22.02
2019-05-29T10:38:40.736Z,22.10
2019-05-29T10:39:40.706Z,22.12
2019-05-29T10:40:40.722Z,22.14
2019-05-29T10:41:40.695Z,21.88
2019-05-29T10:42:40.679Z,21.79
2019-05-29T10:43:40.670Z,21.71
2019-05-29T10:44:40.672Z,21.71
2019-05-29T10:45:40.641Z,21.92
2019-05-29T10:46:40.633Z,21.99
2019-05-29T10:47:40.618Z,21.99
2019-05-29T10:48:40.620Z,22.03
2019-05-29T10:49:40.590Z,22.07
2019-05-29T10:50:40.582Z,22.02
2019-05-29T10:51:58.040Z,22.12
2019-05-29T10:52:40.568Z,22.02
2019-05-29T10:53:40.551Z,22.14
2019-05-29T10:54:40.551Z,22.14
2019-05-29T10:55:40.529Z,22.12
2019-05-29T10:56:40.518Z,22.07
2019-05-29T10:57:40.512Z,22.22
2019-05-29T10:58:49.584Z,22.22
2019-05-29T10:59:40.499Z,22.33
2019-05-29T11:00:40.479Z,22.22
2019-05-29T11:01:40.461Z,22.00
2019-05-29T11:02:40.489Z,22.09
2019-05-29T11:03:40.443Z,21.96
2019-05-29T11:04:40.425Z,21.47
2019-05-29T11:05:40.416Z,21.42
2019-05-29T11:06:41.266Z,21.52
2019-05-29T11:07:40.395Z,21.58
2019-05-29T11:08:40.420Z,21.21
2019-05-29T11:09:44.532Z,21.47
2019-05-29T11:10:40.359Z,21.58
2019-05-29T11:11:40.356Z,21.84
2019-05-29T11:12:40.344Z,21.42
2019-05-29T11:13:40.343Z,21.35
2019-05-29T11:14:40.312Z,21.22
2019-05-29T11:15:40.315Z,20.82
2019-05-29T11:16:40.290Z,20.69
2019-05-29T11:17:40.280Z,20.85
2019-05-29T11:18:40.265Z,20.98
2019-05-29T11:19:40.281Z,20.95
2019-05-29T11:20:40.241Z,20.98
2019-05-29T11:21:40.242Z,21.19
2019-05-29T11:22:40.227Z,21.24
2019-05-29T11:23:40.217Z,21.40
2019-05-29T11:24:40.221Z,21.29
2019-05-29T11:25:40.198Z,21.49
2019-05-29T11:26:40.169Z,21.32
2019-05-29T11:27:40.179Z,21.35
2019-05-29T11:28:40.150Z,21.52
2019-05-29T11:29:40.142Z,21.71
2019-05-29T11:30:40.134Z,21.69
2019-05-29T11:31:40.120Z,21.99
2019-05-29T11:32:40.119Z,21.88
2019-05-29T11:33:40.094Z,21.54
2019-05-29T11:34:40.082Z,20.94
2019-05-29T11:35:56.871Z,20.36
2019-05-29T11:36:40.059Z,20.23
2019-05-29T11:37:40.074Z,20.47
2019-05-29T11:38:40.046Z,20.52
2019-05-29T11:39:40.027Z,20.89
2019-05-29T11:40:40.125Z,20.95
2019-05-29T11:41:40.007Z,20.95
2019-05-29T11:42:39.992Z,21.13
2019-05-29T11:43:40.017Z,21.31
2019-05-29T11:44:39.975Z,21.43
2019-05-29T11:45:39.959Z,21.31
2019-05-29T11:46:39.957Z,20.76
2019-05-29T11:47:39.946Z,20.64
2019-05-29T11:48:39.919Z,20.91
2019-05-29T11:49:39.931Z,21.17
2019-05-29T11:50:39.896Z,21.58
2019-05-29T11:51:44.118Z,21.92
2019-05-29T11:52:43.041Z,22.27
2019-05-29T11:53:39.869Z,22.28
2019-05-29T11:54:39.846Z,22.39
2019-05-29T11:55:39.853Z,22.47
2019-05-29T11:56:39.826Z,22.57
2019-05-29T11:57:39.892Z,22.68
2019-05-29T11:58:39.800Z,22.83
2019-05-29T11:59:39.796Z,22.86
2019-05-29T12:00:39.783Z,22.83
2019-05-29T12:01:50.183Z,22.33
2019-05-29T12:02:39.807Z,21.56
2019-05-29T12:04:05.237Z,21.50
2019-05-29T12:04:39.734Z,21.53
2019-05-29T12:05:39.725Z,21.86
2019-05-29T12:06:39.710Z,22.25
2019-05-29T12:07:39.721Z,22.47
2019-05-29T12:08:39.706Z,22.75
2019-05-29T12:09:39.716Z,22.65
2019-05-29T12:10:39.673Z,21.91
2019-05-29T12:11:39.676Z,21.24
2019-05-29T12:12:39.646Z,20.73
2019-05-29T12:13:39.650Z,20.82
2019-05-29T12:14:58.949Z,21.17
2019-05-29T12:15:39.604Z,21.52
2019-05-29T12:16:39.594Z,21.72
2019-05-29T12:17:40.046Z,21.96
2019-05-29T12:18:39.568Z,21.71
2019-05-29T12:19:39.608Z,21.67
2019-05-29T12:20:39.546Z,21.72
2019-05-29T12:21:42.567Z,21.99
2019-05-29T12:22:39.532Z,22.00
2019-05-29T12:23:39.515Z,21.88
2019-05-29T12:24:39.516Z,22.17
2019-05-29T12:25:39.495Z,22.33
2019-05-29T12:26:39.468Z,22.42
2019-05-29T12:27:39.457Z,22.46
2019-05-29T12:28:39.466Z,22.68
2019-05-29T12:29:39.451Z,22.80
2019-05-29T12:30:39.419Z,22.88
2019-05-29T12:31:39.423Z,23.16
2019-05-29T12:32:39.406Z,23.32
2019-05-29T12:33:39.411Z,23.10
2019-05-29T12:34:52.772Z,22.90
2019-05-29T12:35:39.362Z,22.67
2019-05-29T12:36:39.349Z,22.64
2019-05-29T12:37:39.351Z,22.65
2019-05-29T12:38:39.324Z,22.67
2019-05-29T12:39:39.417Z,22.61
2019-05-29T12:40:39.304Z,22.72
2019-05-29T12:41:39.433Z,21.94
2019-05-29T12:42:39.358Z,21.90
2019-05-29T12:43:39.264Z,21.94
2019-05-29T12:44:39.263Z,21.67
2019-05-29T12:45:39.253Z,22.05
2019-05-29T12:46:39.241Z,22.14
2019-05-29T12:47:39.242Z,22.18
2019-05-29T12:48:39.208Z,22.33
2019-05-29T12:49:39.191Z,22.45
2019-05-29T12:50:39.177Z,22.45
2019-05-29T12:51:39.163Z,21.99
2019-05-29T12:52:39.167Z,22.00
2019-05-29T12:53:39.145Z,22.37
2019-05-29T12:54:39.126Z,22.80
2019-05-29T12:55:39.114Z,23.10
2019-05-29T12:56:39.101Z,23.46
2019-05-29T12:57:39.113Z,23.73
2019-05-29T12:58:39.101Z,23.90
2019-05-29T12:59:39.084Z,23.90
2019-05-29T13:00:39.058Z,23.80
2019-05-29T13:01:39.058Z,23.78